createdAt,value
2018-11-04T00:00:01.200Z,0
2018-11-04T00:01:00.131Z,0
2018-11-04T00:02:00.405Z,0
2018-11-04T00:03:00.372Z,0
2018-11-04T00:04:00.157Z,0
2018-11-04T00:04:59.868Z,0
2018-11-04T00:06:00.411Z,0
2018-11-04T00:07:00.326Z,0
2018-11-04T00:08:00.703Z,0
2018-11-04T00:09:00.349Z,0
2018-11-04T00:10:00.318Z,0
2018-11-04T00:11:00.077Z,0
2018-11-04T00:11:59.760Z,0
2018-11-04T00:13:00.392Z,0
2018-11-04T00:13:59.986Z,0
2018-11-04T00:15:00.596Z,0
2018-11-04T00:16:00.220Z,0
2018-11-04T00:17:00.246Z,0
2018-11-04T00:18:00.042Z,0
2018-11-04T00:18:59.944Z,0
2018-11-04T00:20:00.235Z,0
2018-11-04T00:20:59.952Z,0
2018-11-04T00:21:59.937Z,0
2018-11-04T00:23:00.151Z,0
2018-11-04T00:24:00.137Z,0
2018-11-04T00:24:59.660Z,0
2018-11-04T00:26:00.139Z,0
2018-11-04T00:27:00.295Z,0
2018-11-04T00:27:59.582Z,0
2018-11-04T00:28:59.865Z,0
2018-11-04T00:30:00.414Z,0
2018-11-04T00:31:00.108Z,0
2018-11-04T00:32:00.048Z,0
2018-11-04T00:33:00.087Z,0
2018-11-04T00:34:00.045Z,0
2018-11-04T00:34:59.796Z,0
2018-11-04T00:36:00.007Z,0
2018-11-04T00:36:59.498Z,0
2018-11-04T00:38:00.006Z,0
2018-11-04T00:38:59.242Z,0
2018-11-04T00:40:00.010Z,0
2018-11-04T00:41:00.015Z,0
2018-11-04T00:41:59.711Z,0
2018-11-04T00:42:59.970Z,0
2018-11-04T00:43:59.659Z,0
2018-11-04T00:44:59.935Z,0
2018-11-04T00:45:59.884Z,0
2018-11-04T00:46:59.661Z,0
2018-11-04T00:47:59.873Z,0
2018-11-04T00:48:59.400Z,0
2018-11-04T00:49:59.885Z,0
2018-11-04T00:50:59.619Z,0
2018-11-04T00:51:59.578Z,0
2018-11-04T00:52:59.573Z,0
2018-11-04T00:53:59.841Z,0
2018-11-04T00:54:59.832Z,0
2018-11-04T00:55:59.843Z,0
2018-11-04T00:56:59.797Z,0
2018-11-04T00:57:59.862Z,0
2018-11-04T00:58:59.746Z,0
2018-11-04T00:59:59.530Z,0
2018-11-04T01:00:59.504Z,0
2018-11-04T01:01:59.522Z,0
2018-11-04T01:02:59.724Z,0
2018-11-04T01:03:59.745Z,0
2018-11-04T01:04:59.681Z,0
2018-11-04T01:05:59.705Z,0
2018-11-04T01:06:59.165Z,0
2018-11-04T01:07:59.703Z,0
2018-11-04T01:08:59.810Z,0
2018-11-04T01:09:59.401Z,0
2018-11-04T01:10:59.449Z,0
2018-11-04T01:11:59.651Z,0
2018-11-04T01:12:59.375Z,0
2018-11-04T01:13:59.616Z,0
2018-11-04T01:14:59.574Z,0
2018-11-04T01:15:59.105Z,0
2018-11-04T01:16:59.323Z,0
2018-11-04T01:17:59.091Z,0
2018-11-04T01:18:59.297Z,0
2018-11-04T01:19:59.324Z,0
2018-11-04T01:20:59.332Z,0
2018-11-04T01:21:59.533Z,0
2018-11-04T01:22:59.541Z,0
2018-11-04T01:23:59.226Z,0
2018-11-04T01:24:59.491Z,0
2018-11-04T01:25:59.498Z,0
2018-11-04T01:26:59.503Z,0
2018-11-04T01:27:58.980Z,0
2018-11-04T01:28:59.196Z,0
2018-11-04T01:29:59.452Z,0
2018-11-04T01:30:59.179Z,0
2018-11-04T01:31:59.194Z,0
2018-11-04T01:32:59.148Z,0
2018-11-04T01:33:59.405Z,0
2018-11-04T01:34:59.418Z,0
2018-11-04T01:35:59.125Z,0
2018-11-04T01:36:59.406Z,0
2018-11-04T01:37:59.363Z,0
2018-11-04T01:38:59.390Z,0
2018-11-04T01:39:59.319Z,0
2018-11-04T01:40:59.108Z,0
2018-11-04T01:41:59.333Z,0
2018-11-04T01:42:59.326Z,0
2018-11-04T01:43:59.334Z,0
2018-11-04T01:44:58.772Z,0
2018-11-04T01:45:58.776Z,0
2018-11-04T01:46:58.744Z,0
2018-11-04T01:47:59.029Z,0
2018-11-04T01:48:58.728Z,0
2018-11-04T01:49:59.014Z,0
2018-11-04T01:50:58.960Z,0
2018-11-04T01:51:58.732Z,0
2018-11-04T01:52:59.185Z,0
2018-11-04T01:53:58.957Z,0
2018-11-04T01:54:58.924Z,0
2018-11-04T01:55:58.693Z,0
2018-11-04T01:56:59.181Z,0
2018-11-04T01:57:59.173Z,0
2018-11-04T01:58:59.135Z,0
2018-11-04T01:59:59.168Z,0
2018-11-04T02:00:59.119Z,0
2018-11-04T02:01:58.860Z,0
2018-11-04T02:02:59.084Z,0
2018-11-04T02:03:59.137Z,0
2018-11-04T02:04:59.075Z,0
2018-11-04T02:05:59.120Z,0
2018-11-04T02:06:59.052Z,0
2018-11-04T02:07:59.081Z,0
2018-11-04T02:08:59.025Z,0
2018-11-04T02:09:58.799Z,0
2018-11-04T02:10:58.770Z,0
2018-11-04T02:11:59.053Z,0
2018-11-04T02:12:58.503Z,0
2018-11-04T02:13:59.001Z,0
2018-11-04T02:14:58.465Z,0
2018-11-04T02:15:58.707Z,0
2018-11-04T02:16:58.209Z,0
2018-11-04T02:17:58.707Z,0
2018-11-04T02:18:58.208Z,0
2018-11-04T02:19:58.922Z,0
2018-11-04T02:20:58.941Z,0
2018-11-04T02:21:58.891Z,0
2018-11-04T02:22:58.923Z,0
2018-11-04T02:23:58.889Z,0
2018-11-04T02:24:58.682Z,0
2018-11-04T02:25:58.629Z,0
2018-11-04T02:26:58.863Z,0
2018-11-04T02:27:58.898Z,0
2018-11-04T02:28:58.859Z,0
2018-11-04T02:29:58.587Z,0
2018-11-04T02:30:58.819Z,0
2018-11-04T02:31:58.803Z,0
2018-11-04T02:32:58.842Z,0
2018-11-04T02:33:58.558Z,0
2018-11-04T02:34:58.310Z,0
2018-11-04T02:35:58.761Z,0
2018-11-04T02:36:58.788Z,0
2018-11-04T02:37:58.739Z,0
2018-11-04T02:38:58.774Z,0
2018-11-04T02:39:58.463Z,0
2018-11-04T02:40:58.772Z,0
2018-11-04T02:41:58.729Z,0
2018-11-04T02:42:58.733Z,0
2018-11-04T02:43:58.673Z,0
2018-11-04T02:44:58.440Z,0
2018-11-04T02:45:58.433Z,0
2018-11-04T02:46:59.273Z,0
2018-11-04T02:47:58.686Z,0
2018-11-04T02:48:58.394Z,0
2018-11-04T02:49:58.661Z,0
2018-11-04T02:50:58.704Z,0
2018-11-04T02:51:58.350Z,0
2018-11-04T02:52:58.120Z,0
2018-11-04T02:53:58.323Z,0
2018-11-04T02:54:58.635Z,0
2018-11-04T02:55:58.566Z,0
2018-11-04T02:56:58.094Z,0
2018-11-04T02:57:58.323Z,0
2018-11-04T02:58:58.059Z,0
2018-11-04T02:59:58.010Z,0
2018-11-04T03:00:58.535Z,0
2018-11-04T03:01:58.978Z,0
2018-11-04T03:02:58.535Z,0
2018-11-04T03:03:58.491Z,0
2018-11-04T03:04:58.504Z,0
2018-11-04T03:05:58.490Z,0
2018-11-04T03:06:58.505Z,0
2018-11-04T03:07:58.444Z,0
2018-11-04T03:08:58.487Z,0
2018-11-04T03:09:58.420Z,0
2018-11-04T03:10:58.192Z,0
2018-11-04T03:11:58.409Z,0
2018-11-04T03:12:58.449Z,0
2018-11-04T03:13:58.148Z,0
2018-11-04T03:14:58.434Z,0
2018-11-04T03:15:58.360Z,0
2018-11-04T03:16:58.171Z,0
2018-11-04T03:17:58.390Z,0
2018-11-04T03:18:58.342Z,0
2018-11-04T03:19:58.329Z,0
2018-11-04T03:20:58.356Z,0
2018-11-04T03:21:58.084Z,0
2018-11-04T03:22:58.356Z,0
2018-11-04T03:23:58.280Z,0
2018-11-04T03:24:58.448Z,0
2018-11-04T03:25:58.016Z,0
2018-11-04T03:26:58.040Z,0
2018-11-04T03:27:57.998Z,0
2018-11-04T03:28:58.292Z,0
2018-11-04T03:29:58.247Z,0
2018-11-04T03:30:58.293Z,0
2018-11-04T03:31:57.970Z,0
2018-11-04T03:32:58.220Z,0
2018-11-04T03:33:58.215Z,0
2018-11-04T03:34:58.222Z,0
2018-11-04T03:35:57.709Z,0
2018-11-04T03:36:57.922Z,0
2018-11-04T03:37:58.176Z,0
2018-11-04T03:38:58.137Z,0
2018-11-04T03:39:58.211Z,0
2018-11-04T03:40:57.902Z,0
2018-11-04T03:41:58.129Z,0
2018-11-04T03:42:58.152Z,0
2018-11-04T03:43:58.101Z,0
2018-11-04T03:44:58.133Z,0
2018-11-04T03:45:58.094Z,0
2018-11-04T03:46:58.102Z,0
2018-11-04T03:47:58.058Z,0
2018-11-04T03:48:58.120Z,0
2018-11-04T03:49:57.561Z,0
2018-11-04T03:50:57.552Z,0
2018-11-04T03:51:57.807Z,0
2018-11-04T03:52:57.762Z,0
2018-11-04T03:53:57.772Z,0
2018-11-04T03:54:57.724Z,0
2018-11-04T03:55:58.027Z,0
2018-11-04T03:56:57.751Z,0
2018-11-04T03:57:57.763Z,0
2018-11-04T03:58:57.701Z,0
2018-11-04T03:59:57.984Z,0
2018-11-04T04:00:57.169Z,0
2018-11-04T04:01:57.979Z,0
2018-11-04T04:02:57.914Z,0
2018-11-04T04:03:57.694Z,0
2018-11-04T04:04:57.926Z,0
2018-11-04T04:05:57.394Z,0
2018-11-04T04:06:57.887Z,0
2018-11-04T04:07:57.661Z,0
2018-11-04T04:08:57.663Z,0
2018-11-04T04:09:57.605Z,0
2018-11-04T04:10:57.577Z,0
2018-11-04T04:11:57.614Z,0
2018-11-04T04:12:57.322Z,0
2018-11-04T04:13:57.857Z,0
2018-11-04T04:14:57.550Z,0
2018-11-04T04:15:57.321Z,0
2018-11-04T04:16:57.524Z,0
2018-11-04T04:17:57.549Z,0
2018-11-04T04:18:57.527Z,0
2018-11-04T04:19:57.540Z,0
2018-11-04T04:20:57.513Z,0
2018-11-04T04:21:57.547Z,0
2018-11-04T04:22:56.960Z,0
2018-11-04T04:23:57.710Z,0
2018-11-04T04:24:57.469Z,0
2018-11-04T04:25:57.753Z,0
2018-11-04T04:26:57.483Z,0
2018-11-04T04:27:57.663Z,0
2018-11-04T04:28:57.697Z,0
2018-11-04T04:29:57.644Z,0
2018-11-04T04:30:57.674Z,0
2018-11-04T04:31:57.382Z,0
2018-11-04T04:32:57.663Z,0
2018-11-04T04:33:57.643Z,0
2018-11-04T04:34:57.363Z,0
2018-11-04T04:35:57.636Z,0
2018-11-04T04:36:57.106Z,0
2018-11-04T04:37:57.608Z,0
2018-11-04T04:38:57.582Z,0
2018-11-04T04:39:57.307Z,0
2018-11-04T04:40:57.082Z,0
2018-11-04T04:41:57.306Z,0
2018-11-04T04:42:57.570Z,0
2018-11-04T04:43:57.521Z,0
2018-11-04T04:44:57.534Z,0
2018-11-04T04:45:57.539Z,0
2018-11-04T04:46:57.519Z,0
2018-11-04T04:47:57.477Z,0
2018-11-04T04:48:57.518Z,0
2018-11-04T04:49:57.480Z,0
2018-11-04T04:50:57.232Z,0
2018-11-04T04:51:57.427Z,0
2018-11-04T04:52:57.441Z,0
2018-11-04T04:53:56.929Z,0
2018-11-04T04:54:57.444Z,0
2018-11-04T04:55:57.455Z,0
2018-11-04T04:56:57.397Z,0
2018-11-04T04:57:57.401Z,0
2018-11-04T04:58:57.416Z,0
2018-11-04T04:59:56.852Z,0
2018-11-04T05:00:57.384Z,0
2018-11-04T05:01:57.329Z,0
2018-11-04T05:02:57.377Z,0
2018-11-04T05:03:57.318Z,0
2018-11-04T05:04:57.371Z,0
2018-11-04T05:05:57.321Z,0
2018-11-04T05:06:57.339Z,0
2018-11-04T05:07:57.021Z,0
2018-11-04T05:08:56.782Z,0
2018-11-04T05:09:57.287Z,0
2018-11-04T05:10:57.289Z,0
2018-11-04T05:11:57.287Z,0
2018-11-04T05:12:56.990Z,0
2018-11-04T05:13:57.255Z,0
2018-11-04T05:14:56.964Z,0
2018-11-04T05:15:57.259Z,0
2018-11-04T05:16:57.212Z,0
2018-11-04T05:17:57.243Z,0
2018-11-04T05:18:57.193Z,0
2018-11-04T05:19:57.220Z,0
2018-11-04T05:20:57.151Z,0
2018-11-04T05:21:56.416Z,0
2018-11-04T05:22:56.892Z,0
2018-11-04T05:23:57.177Z,0
2018-11-04T05:24:56.877Z,0
2018-11-04T05:25:57.154Z,0
2018-11-04T05:26:57.157Z,0
2018-11-04T05:27:57.136Z,0
2018-11-04T05:28:57.087Z,0
2018-11-04T05:29:57.093Z,0
2018-11-04T05:30:57.056Z,0
2018-11-04T05:31:57.095Z,0
2018-11-04T05:32:56.796Z,0
2018-11-04T05:33:56.834Z,0
2018-11-04T05:34:56.784Z,0
2018-11-04T05:35:57.057Z,0
2018-11-04T05:36:57.001Z,0
2018-11-04T05:37:57.016Z,0
2018-11-04T05:38:56.743Z,0
2018-11-04T05:39:56.783Z,0
2018-11-04T05:40:57.007Z,0
2018-11-04T05:41:56.726Z,0
2018-11-04T05:42:56.953Z,0
2018-11-04T05:43:56.929Z,0
2018-11-04T05:44:56.969Z,0
2018-11-04T05:45:56.947Z,0
2018-11-04T05:46:56.978Z,0
2018-11-04T05:47:56.903Z,0
2018-11-04T05:48:56.922Z,0
2018-11-04T05:49:56.651Z,0
2018-11-04T05:50:56.872Z,0
2018-11-04T05:51:56.909Z,0
2018-11-04T05:52:56.851Z,0
2018-11-04T05:53:56.607Z,0
2018-11-04T05:54:56.946Z,0
2018-11-04T05:55:56.625Z,0
2018-11-04T05:56:56.597Z,0
2018-11-04T05:57:56.825Z,0
2018-11-04T05:58:56.311Z,0
2018-11-04T05:59:56.779Z,0
2018-11-04T06:00:56.811Z,0
2018-11-04T06:01:56.788Z,0
2018-11-04T06:02:56.549Z,0
2018-11-04T06:03:56.491Z,0
2018-11-04T06:04:56.510Z,0
2018-11-04T06:05:56.717Z,0
2018-11-04T06:06:56.760Z,0
2018-11-04T06:07:56.712Z,0
2018-11-04T06:08:56.501Z,0
2018-11-04T06:09:56.717Z,0
2018-11-04T06:10:56.469Z,0
2018-11-04T06:11:56.674Z,0
2018-11-04T06:12:56.444Z,5
2018-11-04T06:13:56.163Z,0
2018-11-04T06:14:56.685Z,5
2018-11-04T06:15:56.638Z,5
2018-11-04T06:16:56.148Z,5
2018-11-04T06:17:56.641Z,5
2018-11-04T06:18:56.655Z,5
2018-11-04T06:19:56.341Z,5
2018-11-04T06:20:56.364Z,5
2018-11-04T06:21:56.569Z,5
2018-11-04T06:22:56.351Z,5
2018-11-04T06:23:56.562Z,5
2018-11-04T06:24:56.599Z,5
2018-11-04T06:25:56.560Z,10
2018-11-04T06:26:56.311Z,10
2018-11-04T06:27:56.263Z,10
2018-11-04T06:28:56.552Z,10
2018-11-04T06:29:56.535Z,10
2018-11-04T06:30:56.504Z,15
2018-11-04T06:31:56.476Z,15
2018-11-04T06:32:56.508Z,15
2018-11-04T06:33:56.490Z,15
2018-11-04T06:34:56.721Z,15
2018-11-04T06:35:56.449Z,15
2018-11-04T06:36:56.480Z,15
2018-11-04T06:37:56.197Z,20
2018-11-04T06:38:55.940Z,20
2018-11-04T06:39:56.405Z,15
2018-11-04T06:40:56.405Z,20
2018-11-04T06:41:56.186Z,15
2018-11-04T06:42:55.890Z,20
2018-11-04T06:43:56.420Z,20
2018-11-04T06:44:56.138Z,20
2018-11-04T06:45:56.377Z,20
2018-11-04T06:46:56.270Z,20
2018-11-04T06:47:56.593Z,25
2018-11-04T06:48:56.117Z,25
2018-11-04T06:49:56.337Z,25
2018-11-04T06:50:56.361Z,25
2018-11-04T06:51:56.294Z,30
2018-11-04T06:52:56.328Z,30
2018-11-04T06:53:56.020Z,30
2018-11-04T06:54:56.304Z,30
2018-11-04T06:55:56.262Z,30
2018-11-04T06:56:56.300Z,30
2018-11-04T06:57:56.256Z,35
2018-11-04T06:58:55.760Z,35
2018-11-04T06:59:55.870Z,35
2018-11-04T07:00:55.988Z,40
2018-11-04T07:01:56.228Z,40
2018-11-04T07:02:55.981Z,40
2018-11-04T07:03:56.231Z,40
2018-11-04T07:04:55.939Z,40
2018-11-04T07:05:55.938Z,40
2018-11-04T07:06:55.962Z,40
2018-11-04T07:07:55.891Z,45
2018-11-04T07:08:56.194Z,50
2018-11-04T07:09:56.129Z,50
2018-11-04T07:10:55.647Z,50
2018-11-04T07:11:56.137Z,45
2018-11-04T07:12:55.904Z,40
2018-11-04T07:13:56.116Z,45
2018-11-04T07:14:56.120Z,50
2018-11-04T07:15:56.074Z,50
2018-11-04T07:16:56.094Z,55
2018-11-04T07:17:56.083Z,55
2018-11-04T07:18:55.900Z,55
2018-11-04T07:19:56.079Z,60
2018-11-04T07:20:56.046Z,65
2018-11-04T07:21:55.839Z,65
2018-11-04T07:22:55.752Z,60
2018-11-04T07:23:56.053Z,60
2018-11-04T07:24:56.006Z,70
2018-11-04T07:25:56.322Z,70
2018-11-04T07:26:55.732Z,65
2018-11-04T07:27:55.757Z,60
2018-11-04T07:28:55.966Z,60
2018-11-04T07:29:55.978Z,60
2018-11-04T07:30:55.948Z,60
2018-11-04T07:31:56.132Z,65
2018-11-04T07:32:55.934Z,65
2018-11-04T07:33:55.935Z,65
2018-11-04T07:34:55.432Z,65
2018-11-04T07:35:55.686Z,60
2018-11-04T07:36:55.648Z,60
2018-11-04T07:37:55.909Z,55
2018-11-04T07:38:55.612Z,50
2018-11-04T07:39:55.653Z,50
2018-11-04T07:40:55.870Z,45
2018-11-04T07:41:55.892Z,45
2018-11-04T07:42:55.838Z,40
2018-11-04T07:43:55.871Z,45
2018-11-04T07:44:55.813Z,50
2018-11-04T07:45:55.830Z,50
2018-11-04T07:46:55.810Z,55
2018-11-04T07:47:55.846Z,60
2018-11-04T07:48:55.817Z,65
2018-11-04T07:49:55.292Z,65
2018-11-04T07:50:55.270Z,70
2018-11-04T07:51:55.255Z,70
2018-11-04T07:52:55.270Z,70
2018-11-04T07:53:55.530Z,75
2018-11-04T07:54:55.803Z,80
2018-11-04T07:55:55.729Z,75
2018-11-04T07:56:56.102Z,75
2018-11-04T07:57:55.479Z,75
2018-11-04T07:58:55.705Z,75
2018-11-04T07:59:55.483Z,75
2018-11-04T08:00:56.050Z,75
2018-11-04T08:01:55.706Z,75
2018-11-04T08:02:55.778Z,70
2018-11-04T08:03:55.734Z,70
2018-11-04T08:04:55.684Z,70
2018-11-04T08:05:55.660Z,65
2018-11-04T08:06:55.402Z,65
2018-11-04T08:07:55.374Z,65
2018-11-04T08:08:55.648Z,65
2018-11-04T08:09:55.627Z,65
2018-11-04T08:10:55.354Z,65
2018-11-04T08:11:55.632Z,65
2018-11-04T08:12:55.590Z,65
2018-11-04T08:13:55.110Z,70
2018-11-04T08:14:55.318Z,70
2018-11-04T08:15:55.605Z,70
2018-11-04T08:16:55.035Z,70
2018-11-04T08:17:55.062Z,75
2018-11-04T08:18:55.545Z,75
2018-11-04T08:19:55.575Z,75
2018-11-04T08:20:55.544Z,80
2018-11-04T08:21:55.276Z,75
2018-11-04T08:22:55.497Z,75
2018-11-04T08:23:55.031Z,80
2018-11-04T08:24:55.496Z,80
2018-11-04T08:25:55.252Z,85
2018-11-04T08:26:55.197Z,80
2018-11-04T08:27:55.731Z,85
2018-11-04T08:28:55.201Z,90
2018-11-04T08:29:55.231Z,100
2018-11-04T08:30:55.177Z,95
2018-11-04T08:31:55.208Z,105
2018-11-04T08:32:55.400Z,105
2018-11-04T08:33:55.435Z,105
2018-11-04T08:34:55.410Z,110
2018-11-04T08:35:55.431Z,110
2018-11-04T08:36:55.401Z,110
2018-11-04T08:37:55.150Z,115
2018-11-04T08:38:54.856Z,120
2018-11-04T08:39:55.624Z,120
2018-11-04T08:40:55.371Z,125
2018-11-04T08:41:55.359Z,130
2018-11-04T08:42:55.118Z,125
2018-11-04T08:43:55.310Z,120
2018-11-04T08:44:55.356Z,125
2018-11-04T08:45:56.308Z,125
2018-11-04T08:46:55.087Z,125
2018-11-04T08:47:55.289Z,130
2018-11-04T08:48:55.047Z,130
2018-11-04T08:49:55.298Z,125
2018-11-04T08:50:55.265Z,135
2018-11-04T08:51:55.347Z,130
2018-11-04T08:52:55.037Z,135
2018-11-04T08:53:55.003Z,130
2018-11-04T08:54:54.718Z,130
2018-11-04T08:55:55.214Z,135
2018-11-04T08:56:54.981Z,125
2018-11-04T08:57:55.230Z,125
2018-11-04T08:58:55.243Z,120
2018-11-04T08:59:55.365Z,125
2018-11-04T09:00:54.704Z,125
2018-11-04T09:01:55.184Z,120
2018-11-04T09:02:55.196Z,125
2018-11-04T09:03:55.153Z,135
2018-11-04T09:04:54.942Z,140
2018-11-04T09:05:54.897Z,135
2018-11-04T09:06:55.165Z,135
2018-11-04T09:07:55.114Z,135
2018-11-04T09:08:55.138Z,135
2018-11-04T09:09:55.121Z,135
2018-11-04T09:10:55.135Z,130
2018-11-04T09:11:54.629Z,130
2018-11-04T09:12:55.091Z,140
2018-11-04T09:13:55.093Z,130
2018-11-04T09:14:55.101Z,130
2018-11-04T09:15:55.053Z,125
2018-11-04T09:16:55.089Z,135
2018-11-04T09:17:54.526Z,135
2018-11-04T09:18:55.071Z,135
2018-11-04T09:19:54.768Z,130
2018-11-04T09:20:55.068Z,120
2018-11-04T09:21:56.160Z,125
2018-11-04T09:22:54.746Z,130
2018-11-04T09:23:54.228Z,120
2018-11-04T09:24:54.997Z,115
2018-11-04T09:25:54.762Z,110
2018-11-04T09:26:54.496Z,105
2018-11-04T09:27:54.747Z,100
2018-11-04T09:28:54.754Z,105
2018-11-04T09:29:54.710Z,105
2018-11-04T09:30:54.928Z,95
2018-11-04T09:31:54.714Z,105
2018-11-04T09:32:54.677Z,105
2018-11-04T09:33:54.704Z,110
2018-11-04T09:34:55.334Z,105
2018-11-04T09:35:56.259Z,100
2018-11-04T09:36:54.638Z,100
2018-11-04T09:37:54.655Z,100
2018-11-04T09:38:54.627Z,105
2018-11-04T09:39:54.658Z,110
2018-11-04T09:40:54.617Z,115
2018-11-04T09:41:54.869Z,110
2018-11-04T09:42:54.881Z,120
2018-11-04T09:43:54.879Z,125
2018-11-04T09:44:54.835Z,120
2018-11-04T09:45:54.837Z,125
2018-11-04T09:46:54.804Z,120
2018-11-04T09:47:54.851Z,125
2018-11-04T09:48:54.856Z,120
2018-11-04T09:49:55.174Z,120
2018-11-04T09:50:54.791Z,120
2018-11-04T09:51:54.304Z,115
2018-11-04T09:52:54.565Z,125
2018-11-04T09:53:54.773Z,125
2018-11-04T09:54:54.532Z,115
2018-11-04T09:55:54.478Z,110
2018-11-04T09:56:54.900Z,115
2018-11-04T09:57:54.738Z,120
2018-11-04T09:58:54.759Z,120
2018-11-04T09:59:54.753Z,125
2018-11-04T10:00:54.708Z,125
2018-11-04T10:01:54.457Z,110
2018-11-04T10:02:54.730Z,110
2018-11-04T10:03:54.210Z,115
2018-11-04T10:04:54.428Z,120
2018-11-04T10:05:54.675Z,125
2018-11-04T10:06:54.557Z,125
2018-11-04T10:07:54.644Z,125
2018-11-04T10:08:54.438Z,120
2018-11-04T10:09:54.398Z,120
2018-11-04T10:10:54.670Z,125
2018-11-04T10:11:54.602Z,125
2018-11-04T10:12:54.360Z,125
2018-11-04T10:13:54.615Z,135
2018-11-04T10:14:54.639Z,140
2018-11-04T10:15:54.632Z,135
2018-11-04T10:16:54.590Z,130
2018-11-04T10:17:54.591Z,135
2018-11-04T10:18:55.360Z,135
2018-11-04T10:19:55.915Z,135
2018-11-04T10:20:58.331Z,135
2018-11-04T10:21:54.590Z,145
2018-11-04T10:22:54.549Z,130
2018-11-04T10:23:54.567Z,135
2018-11-04T10:24:54.252Z,135
2018-11-04T10:25:54.270Z,140
2018-11-04T10:26:54.241Z,135
2018-11-04T10:27:54.283Z,125
2018-11-04T10:28:54.262Z,125
2018-11-04T10:29:54.254Z,125
2018-11-04T10:30:54.475Z,125
2018-11-04T10:31:54.502Z,125
2018-11-04T10:32:54.457Z,125
2018-11-04T10:33:54.205Z,120
2018-11-04T10:34:53.918Z,130
2018-11-04T10:35:54.546Z,120
2018-11-04T10:36:54.186Z,120
2018-11-04T10:37:54.457Z,125
2018-11-04T10:38:54.154Z,125
2018-11-04T10:39:54.442Z,120
2018-11-04T10:40:54.128Z,125
2018-11-04T10:41:54.415Z,110
2018-11-04T10:42:54.378Z,100
2018-11-04T10:43:54.426Z,120
2018-11-04T10:44:54.391Z,115
2018-11-04T10:45:54.113Z,120
2018-11-04T10:46:54.385Z,125
2018-11-04T10:47:54.091Z,120
2018-11-04T10:48:54.359Z,115
2018-11-04T10:49:53.773Z,115
2018-11-04T10:50:54.102Z,115
2018-11-04T10:51:54.298Z,115
2018-11-04T10:52:54.087Z,115
2018-11-04T10:53:54.032Z,115
2018-11-04T10:54:54.316Z,115
2018-11-04T10:55:54.154Z,110
2018-11-04T10:56:54.298Z,120
2018-11-04T10:57:54.278Z,115
2018-11-04T10:58:54.278Z,115
2018-11-04T10:59:54.038Z,115
2018-11-04T11:00:54.269Z,110
2018-11-04T11:01:53.992Z,110
2018-11-04T11:02:54.233Z,110
2018-11-04T11:03:54.209Z,115
2018-11-04T11:04:54.223Z,125
2018-11-04T11:05:54.216Z,120
2018-11-04T11:06:53.981Z,115
2018-11-04T11:07:54.184Z,120
2018-11-04T11:08:54.205Z,125
2018-11-04T11:09:54.163Z,130
2018-11-04T11:10:54.444Z,135
2018-11-04T11:11:53.889Z,130
2018-11-04T11:12:53.930Z,130
2018-11-04T11:13:54.147Z,140
2018-11-04T11:14:53.644Z,135
2018-11-04T11:15:54.118Z,125
2018-11-04T11:16:53.868Z,140
2018-11-04T11:17:54.116Z,130
2018-11-04T11:18:53.619Z,135
2018-11-04T11:19:54.132Z,135
2018-11-04T11:20:53.831Z,140
2018-11-04T11:21:54.087Z,135
2018-11-04T11:22:55.303Z,120
2018-11-04T11:23:53.810Z,120
2018-11-04T11:24:53.830Z,120
2018-11-04T11:25:54.042Z,125
2018-11-04T11:26:54.070Z,135
2018-11-04T11:27:54.034Z,140
2018-11-04T11:28:54.069Z,125
2018-11-04T11:29:53.831Z,125
2018-11-04T11:30:53.523Z,125
2018-11-04T11:31:53.738Z,120
2018-11-04T11:32:53.999Z,120
2018-11-04T11:33:53.992Z,120
2018-11-04T11:34:53.746Z,120
2018-11-04T11:35:53.853Z,125
2018-11-04T11:36:53.969Z,125
2018-11-04T11:37:54.129Z,120
2018-11-04T11:38:53.745Z,125
2018-11-04T11:39:53.733Z,120
2018-11-04T11:40:53.936Z,120
2018-11-04T11:41:53.708Z,120
2018-11-04T11:42:53.404Z,120
2018-11-04T11:43:53.690Z,125
2018-11-04T11:44:54.169Z,130
2018-11-04T11:45:53.664Z,125
2018-11-04T11:46:53.635Z,125
2018-11-04T11:47:53.659Z,125
2018-11-04T11:48:53.623Z,120
2018-11-04T11:49:53.869Z,115
2018-11-04T11:50:53.888Z,110
2018-11-04T11:51:53.702Z,110
2018-11-04T11:52:53.595Z,95
2018-11-04T11:53:53.841Z,90
2018-11-04T11:54:53.321Z,100
2018-11-04T11:55:53.865Z,105
2018-11-04T11:56:53.816Z,100
2018-11-04T11:57:53.845Z,110
2018-11-04T11:58:53.806Z,125
2018-11-04T11:59:53.574Z,115
2018-11-04T12:00:53.512Z,115
2018-11-04T12:01:53.797Z,115
2018-11-04T12:02:53.758Z,115
2018-11-04T12:03:53.804Z,115
2018-11-04T12:04:53.512Z,110
2018-11-04T12:05:53.760Z,115
2018-11-04T12:06:53.489Z,115
2018-11-04T12:07:53.715Z,110
2018-11-04T12:08:53.484Z,115
2018-11-04T12:09:53.477Z,115
2018-11-04T12:10:53.483Z,115
2018-11-04T12:11:53.688Z,115
2018-11-04T12:12:53.461Z,110
2018-11-04T12:13:53.698Z,105
2018-11-04T12:14:53.668Z,105
2018-11-04T12:15:53.440Z,100
2018-11-04T12:16:53.389Z,95
2018-11-04T12:17:53.880Z,105
2018-11-04T12:18:53.382Z,100
2018-11-04T12:19:53.418Z,105
2018-11-04T12:20:53.652Z,100
2018-11-04T12:21:53.635Z,95
2018-11-04T12:22:53.628Z,95
2018-11-04T12:23:54.530Z,95
2018-11-04T12:24:53.640Z,100
2018-11-04T12:25:53.599Z,100
2018-11-04T12:26:53.652Z,100
2018-11-04T12:27:53.562Z,105
2018-11-04T12:28:53.582Z,90
2018-11-04T12:29:53.546Z,85
2018-11-04T12:30:53.064Z,85
2018-11-04T12:31:53.283Z,85
2018-11-04T12:32:53.315Z,90
2018-11-04T12:33:53.277Z,90
2018-11-04T12:34:53.544Z,90
2018-11-04T12:35:52.987Z,90
2018-11-04T12:36:53.259Z,95
2018-11-04T12:37:53.511Z,90
2018-11-04T12:38:53.509Z,85
2018-11-04T12:39:53.489Z,70
2018-11-04T12:40:53.238Z,70
2018-11-04T12:41:53.476Z,65
2018-11-04T12:42:53.244Z,65
2018-11-04T12:43:53.438Z,65
2018-11-04T12:44:53.473Z,70
2018-11-04T12:45:53.734Z,65
2018-11-04T12:46:53.451Z,70
2018-11-04T12:47:53.401Z,70
2018-11-04T12:48:53.455Z,65
2018-11-04T12:49:53.167Z,70
2018-11-04T12:50:53.425Z,70
2018-11-04T12:51:53.395Z,70
2018-11-04T12:52:53.380Z,70
2018-11-04T12:53:53.384Z,70
2018-11-04T12:54:53.169Z,65
2018-11-04T12:55:52.892Z,65
2018-11-04T12:56:53.350Z,65
2018-11-04T12:57:53.098Z,65
2018-11-04T12:58:53.065Z,65
2018-11-04T12:59:53.109Z,65
2018-11-04T13:00:53.064Z,65
2018-11-04T13:01:53.660Z,65
2018-11-04T13:02:53.045Z,65
2018-11-04T13:03:53.072Z,65
2018-11-04T13:04:53.084Z,60
2018-11-04T13:05:53.294Z,60
2018-11-04T13:06:53.297Z,55
2018-11-04T13:07:53.248Z,60
2018-11-04T13:08:53.260Z,65
2018-11-04T13:09:53.253Z,65
2018-11-04T13:10:53.261Z,60
2018-11-04T13:11:53.017Z,60
2018-11-04T13:12:52.970Z,65
2018-11-04T13:13:53.226Z,65
2018-11-04T13:14:53.189Z,70
2018-11-04T13:15:52.979Z,65
2018-11-04T13:16:53.193Z,70
2018-11-04T13:17:53.193Z,65
2018-11-04T13:18:52.945Z,65
2018-11-04T13:19:53.170Z,60
2018-11-04T13:20:53.201Z,65
2018-11-04T13:21:53.207Z,65
2018-11-04T13:22:52.915Z,60
2018-11-04T13:23:52.928Z,65
2018-11-04T13:24:53.130Z,60
2018-11-04T13:25:53.134Z,55
2018-11-04T13:26:53.386Z,55
2018-11-04T13:27:52.891Z,55
2018-11-04T13:28:52.938Z,55
2018-11-04T13:29:53.101Z,55
2018-11-04T13:30:53.119Z,50
2018-11-04T13:31:52.814Z,50
2018-11-04T13:32:53.091Z,50
2018-11-04T13:33:52.531Z,50
2018-11-04T13:34:53.080Z,50
2018-11-04T13:35:53.204Z,50
2018-11-04T13:36:53.069Z,50
2018-11-04T13:37:52.774Z,45
2018-11-04T13:38:53.042Z,50
2018-11-04T13:39:52.994Z,55
2018-11-04T13:40:52.744Z,50
2018-11-04T13:41:53.012Z,50
2018-11-04T13:42:53.013Z,55
2018-11-04T13:43:53.074Z,55
2018-11-04T13:44:52.974Z,45
2018-11-04T13:45:52.973Z,45
2018-11-04T13:46:52.436Z,45
2018-11-04T13:47:52.979Z,50
2018-11-04T13:48:52.938Z,50
2018-11-04T13:49:52.715Z,45
2018-11-04T13:50:52.923Z,50
2018-11-04T13:51:52.942Z,45
2018-11-04T13:52:52.887Z,45
2018-11-04T13:53:52.916Z,45
2018-11-04T13:54:52.879Z,45
2018-11-04T13:55:52.930Z,45
2018-11-04T13:56:52.869Z,40
2018-11-04T13:57:52.874Z,40
2018-11-04T13:58:52.884Z,40
2018-11-04T13:59:52.891Z,40
2018-11-04T14:00:52.585Z,40
2018-11-04T14:01:52.590Z,35
2018-11-04T14:02:52.981Z,30
2018-11-04T14:03:52.849Z,30
2018-11-04T14:04:52.560Z,30
2018-11-04T14:05:52.584Z,35
2018-11-04T14:06:52.589Z,30
2018-11-04T14:07:52.562Z,35
2018-11-04T14:08:52.508Z,35
2018-11-04T14:09:52.522Z,35
2018-11-04T14:10:52.503Z,30
2018-11-04T14:11:52.798Z,35
2018-11-04T14:12:52.473Z,35
2018-11-04T14:13:52.747Z,35
2018-11-04T14:14:52.475Z,35
2018-11-04T14:15:52.455Z,35
2018-11-04T14:16:51.967Z,35
2018-11-04T14:17:52.465Z,35
2018-11-04T14:18:52.730Z,35
2018-11-04T14:19:52.425Z,40
2018-11-04T14:20:52.713Z,35